createdAt,value
2023-11-30T00:01:10.819Z,5.30
2023-11-30T00:03:40.887Z,6.70
2023-11-30T00:06:09.827Z,6.10
2023-11-30T00:08:38.291Z,5.90
2023-11-30T00:11:07.684Z,7.10
2023-11-30T00:13:36.291Z,5.30
2023-11-30T00:16:05.527Z,4.00
2023-11-30T00:18:34.066Z,5.20
2023-11-30T00:21:02.723Z,4.70
2023-11-30T00:23:31.354Z,4.30
2023-11-30T00:25:59.823Z,4.30
2023-11-30T00:28:28.284Z,3.10
2023-11-30T00:30:57.045Z,5.10
2023-11-30T00:33:25.666Z,4.20
2023-11-30T00:35:55.064Z,4.40
2023-11-30T00:38:23.894Z,4.40
2023-11-30T00:40:52.390Z,4.50
2023-11-30T00:43:21.057Z,4.00
2023-11-30T00:46:00.452Z,3.20
2023-11-30T00:48:35.889Z,4.80
2023-11-30T00:51:04.581Z,3.80
2023-11-30T00:53:33.207Z,4.20
2023-11-30T00:56:01.591Z,2.90
2023-11-30T00:58:30.083Z,3.10
2023-11-30T01:00:58.837Z,3.70
2023-11-30T01:03:27.447Z,3.70
2023-11-30T01:05:56.031Z,3.10
2023-11-30T01:08:24.543Z,2.60
2023-11-30T01:10:53.197Z,3.30
2023-11-30T01:13:21.668Z,4.30
2023-11-30T01:15:50.242Z,3.00
2023-11-30T01:18:19.245Z,2.10
2023-11-30T01:20:47.827Z,3.70
2023-11-30T01:23:16.353Z,2.30
2023-11-30T01:25:44.889Z,2.70
2023-11-30T01:28:13.325Z,3.00
2023-11-30T01:30:41.706Z,2.60
2023-11-30T01:33:10.276Z,2.70
2023-11-30T01:35:38.868Z,3.70
2023-11-30T01:38:07.389Z,3.20
2023-11-30T01:40:35.859Z,3.50
2023-11-30T01:43:07.946Z,2.70
2023-11-30T01:45:36.464Z,3.60
2023-11-30T01:48:06.389Z,3.30
2023-11-30T01:50:35.424Z,6.70
2023-11-30T01:53:04.355Z,4.10
2023-11-30T01:55:33.762Z,3.50
2023-11-30T01:58:04.243Z,3.10
2023-11-30T02:00:33.544Z,4.70
2023-11-30T02:03:04.959Z,4.50
2023-11-30T02:05:36.485Z,5.40
2023-11-30T02:08:05.173Z,4.20
2023-11-30T02:10:33.801Z,5.50
2023-11-30T02:13:02.290Z,4.30
2023-11-30T02:15:30.695Z,3.90
2023-11-30T02:17:59.680Z,3.20
2023-11-30T02:20:28.342Z,3.80
2023-11-30T02:22:56.876Z,4.20
2023-11-30T02:25:25.921Z,3.50
2023-11-30T02:27:54.817Z,4.30
2023-11-30T02:30:23.914Z,4.00
2023-11-30T02:32:53.663Z,3.80
2023-11-30T02:35:22.392Z,5.10
2023-11-30T02:37:50.923Z,6.50
2023-11-30T02:40:20.372Z,6.40
2023-11-30T02:42:48.966Z,6.20
2023-11-30T02:45:17.449Z,4.50
2023-11-30T02:47:45.888Z,7.10
2023-11-30T02:50:14.617Z,6.30
2023-11-30T02:52:43.332Z,4.70
2023-11-30T02:55:11.987Z,7.70
2023-11-30T02:57:41.629Z,9.30
2023-11-30T03:00:11.106Z,6.30
2023-11-30T03:02:39.704Z,5.80
2023-11-30T03:05:08.556Z,6.90
2023-11-30T03:07:36.983Z,7.40
2023-11-30T03:10:06.132Z,6.70
2023-11-30T03:12:34.751Z,6.70
2023-11-30T03:15:04.131Z,9.70
2023-11-30T03:17:33.573Z,12.60
2023-11-30T03:20:02.206Z,13.70
2023-11-30T03:22:30.801Z,9.70
2023-11-30T03:24:59.270Z,8.00
2023-11-30T03:27:27.839Z,8.20
2023-11-30T03:29:56.357Z,7.40
2023-11-30T03:32:24.779Z,9.40
2023-11-30T03:34:53.288Z,8.50
2023-11-30T03:37:21.761Z,7.90
2023-11-30T03:39:50.760Z,8.90
2023-11-30T03:42:20.748Z,9.30
2023-11-30T03:44:49.919Z,7.10
2023-11-30T03:47:18.703Z,9.00
2023-11-30T03:49:47.493Z,7.10
2023-11-30T03:52:16.173Z,5.60
2023-11-30T03:54:44.651Z,7.30
2023-11-30T03:57:13.672Z,6.10
2023-11-30T03:59:43.302Z,9.00
2023-11-30T04:02:11.837Z,5.20
2023-11-30T04:04:41.077Z,5.40
2023-11-30T04:07:09.557Z,5.60
2023-11-30T04:09:39.119Z,3.20
2023-11-30T04:12:07.991Z,4.10
2023-11-30T04:14:36.697Z,3.20
2023-11-30T04:17:05.892Z,3.30
2023-11-30T04:19:34.882Z,4.80
2023-11-30T04:22:03.416Z,5.00
2023-11-30T04:24:31.907Z,4.80
2023-11-30T04:27:01.435Z,6.20
2023-11-30T04:29:29.925Z,8.40
2023-11-30T04:31:58.663Z,7.90
2023-11-30T04:34:28.170Z,12.60
2023-11-30T04:36:56.749Z,8.00
2023-11-30T04:39:25.923Z,6.50
2023-11-30T04:41:55.632Z,5.50
2023-11-30T04:44:30.027Z,5.60
2023-11-30T04:46:58.782Z,10.30
2023-11-30T04:49:27.287Z,11.60
2023-11-30T04:51:55.662Z,9.10
2023-11-30T04:54:24.202Z,10.60
2023-11-30T04:56:52.939Z,9.00
2023-11-30T04:59:21.625Z,8.70
2023-11-30T05:01:50.254Z,9.60
2023-11-30T05:04:19.117Z,11.50
2023-11-30T05:06:47.892Z,18.90
2023-11-30T05:09:17.884Z,25.00
2023-11-30T05:11:46.322Z,22.10
2023-11-30T05:14:14.849Z,18.80
2023-11-30T05:16:43.367Z,12.20
2023-11-30T05:19:11.863Z,15.30
2023-11-30T05:21:40.193Z,8.60
2023-11-30T05:24:08.755Z,11.10
2023-11-30T05:26:38.006Z,13.50
2023-11-30T05:29:06.668Z,10.80
2023-11-30T05:31:35.492Z,9.80
2023-11-30T05:34:04.129Z,14.30
2023-11-30T05:36:32.989Z,9.20
2023-11-30T05:39:01.638Z,8.20
2023-11-30T05:41:30.288Z,9.50
2023-11-30T05:43:58.709Z,14.40
2023-11-30T05:46:27.089Z,13.60
2023-11-30T05:48:56.582Z,12.20
2023-11-30T05:51:25.955Z,12.70
2023-11-30T05:53:54.780Z,13.60
2023-11-30T05:56:23.580Z,11.60
2023-11-30T05:58:52.327Z,12.70
2023-11-30T06:01:20.795Z,13.30
2023-11-30T06:03:49.367Z,10.10
2023-11-30T06:06:18.172Z,11.80
2023-11-30T06:08:48.530Z,15.30
2023-11-30T06:11:17.422Z,12.50
2023-11-30T06:13:46.613Z,10.50
2023-11-30T06:16:15.426Z,21.80
2023-11-30T06:18:43.833Z,15.10
2023-11-30T06:21:13.169Z,11.30
2023-11-30T06:23:41.662Z,20.10
2023-11-30T06:26:10.283Z,13.50
2023-11-30T06:28:39.338Z,20.60
2023-11-30T06:31:09.123Z,14.50
2023-11-30T06:33:37.723Z,15.00
2023-11-30T06:36:06.988Z,17.20
2023-11-30T06:38:35.359Z,13.30
2023-11-30T06:41:11.876Z,17.80
2023-11-30T06:43:41.866Z,15.20
2023-11-30T06:46:10.494Z,8.80
2023-11-30T06:48:39.101Z,8.80
2023-11-30T06:51:08.349Z,7.80
2023-11-30T06:53:36.834Z,6.80
2023-11-30T06:56:06.096Z,9.60
2023-11-30T06:58:34.734Z,8.90
2023-11-30T07:01:08.772Z,7.00
2023-11-30T07:06:12.279Z,6.70
2023-11-30T07:08:40.937Z,6.60
2023-11-30T07:11:12.843Z,6.70
2023-11-30T07:13:42.163Z,7.40
2023-11-30T07:16:11.363Z,5.90
2023-11-30T07:18:40.310Z,9.70
2023-11-30T07:21:16.159Z,9.40
2023-11-30T07:23:45.212Z,6.50
2023-11-30T07:26:14.824Z,7.30
2023-11-30T07:28:44.145Z,5.90
2023-11-30T07:31:20.747Z,6.80
2023-11-30T07:33:50.252Z,7.50
2023-11-30T07:36:18.849Z,16.50
2023-11-30T07:38:47.408Z,13.80
2023-11-30T07:41:16.000Z,10.00
2023-11-30T07:43:44.948Z,8.80
2023-11-30T07:46:13.335Z,5.60
2023-11-30T07:48:41.938Z,6.20
2023-11-30T07:51:10.606Z,7.40
2023-11-30T07:53:39.061Z,17.50
2023-11-30T07:56:08.668Z,8.70
2023-11-30T07:58:37.736Z,7.80
2023-11-30T08:01:06.668Z,12.60
2023-11-30T08:03:35.376Z,6.50
2023-11-30T08:06:04.381Z,8.40
2023-11-30T08:08:33.016Z,5.60
2023-11-30T08:11:02.600Z,6.80
2023-11-30T08:13:32.146Z,6.30
2023-11-30T08:16:04.877Z,4.60
2023-11-30T08:18:33.798Z,9.20
2023-11-30T08:21:04.051Z,7.20
2023-11-30T08:23:34.688Z,6.30
2023-11-30T08:26:05.308Z,6.00
2023-11-30T08:28:34.259Z,4.80
2023-11-30T08:31:06.285Z,5.50
2023-11-30T08:33:36.003Z,5.10
2023-11-30T08:36:06.050Z,4.70
2023-11-30T08:38:37.570Z,4.50
2023-11-30T08:41:06.767Z,4.30
2023-11-30T08:43:35.330Z,5.30
2023-11-30T08:46:04.181Z,5.20
2023-11-30T08:48:32.914Z,4.90
2023-11-30T08:51:01.392Z,4.60
2023-11-30T08:53:30.123Z,3.40
2023-11-30T08:55:58.560Z,3.60
2023-11-30T08:58:27.491Z,2.90
2023-11-30T09:00:55.926Z,4.20
2023-11-30T09:03:24.538Z,4.80
2023-11-30T09:08:21.737Z,2.50
2023-11-30T09:10:50.299Z,4.20
2023-11-30T09:13:18.894Z,2.30
2023-11-30T09:15:47.538Z,4.00
2023-11-30T09:18:16.107Z,4.20
2023-11-30T09:20:46.166Z,2.90
2023-11-30T09:23:14.749Z,3.90
2023-11-30T09:25:43.489Z,4.40
2023-11-30T09:28:11.948Z,4.40
2023-11-30T09:30:40.926Z,3.40
2023-11-30T09:33:09.921Z,2.30
2023-11-30T09:35:38.736Z,3.50
2023-11-30T09:38:07.934Z,3.30
2023-11-30T09:40:36.364Z,3.80
2023-11-30T09:43:06.074Z,3.20
2023-11-30T09:45:37.110Z,4.00
2023-11-30T09:48:06.314Z,4.20
2023-11-30T09:50:35.006Z,4.90
2023-11-30T09:53:04.360Z,4.50
2023-11-30T09:55:32.779Z,4.30
2023-11-30T09:58:01.251Z,3.90
2023-11-30T10:00:29.814Z,3.60
2023-11-30T10:03:01.675Z,2.70
2023-11-30T10:05:30.473Z,16.20
2023-11-30T10:08:00.144Z,13.60
2023-11-30T10:10:29.069Z,4.20
2023-11-30T10:12:57.816Z,5.60
2023-11-30T10:15:27.173Z,40.80
2023-11-30T10:17:55.867Z,7.80
2023-11-30T10:20:27.324Z,5.50
2023-11-30T10:22:55.925Z,4.40
2023-11-30T10:25:26.204Z,10.10
2023-11-30T10:27:57.399Z,6.00
2023-11-30T10:30:27.509Z,10.40
2023-11-30T10:32:57.679Z,4.90
2023-11-30T10:35:32.105Z,11.60
2023-11-30T10:38:01.940Z,3.20
2023-11-30T10:40:30.660Z,5.50
2023-11-30T10:43:05.383Z,16.40
2023-11-30T10:45:39.636Z,10.00
2023-11-30T10:48:13.783Z,19.50
2023-11-30T10:50:42.558Z,5.40
2023-11-30T10:53:25.674Z,4.50
2023-11-30T10:55:55.785Z,10.10
2023-11-30T10:58:26.208Z,7.40
2023-11-30T11:01:01.156Z,6.10
2023-11-30T11:03:29.931Z,6.90
2023-11-30T11:05:59.378Z,3.70
2023-11-30T11:08:29.086Z,5.50
2023-11-30T11:11:08.136Z,4.80
2023-11-30T11:13:47.608Z,4.50
2023-11-30T11:16:16.516Z,6.70
2023-11-30T11:18:45.688Z,3.60
2023-11-30T11:21:27.612Z,5.10
2023-11-30T11:24:04.768Z,5.10
2023-11-30T11:26:42.494Z,5.80
2023-11-30T11:29:15.376Z,4.90
2023-11-30T11:31:45.466Z,7.20
2023-11-30T11:34:15.604Z,2.80
2023-11-30T11:36:44.755Z,2.70
2023-11-30T11:39:14.700Z,3.50
2023-11-30T11:41:43.645Z,4.90
2023-11-30T11:44:12.455Z,6.20
2023-11-30T11:46:41.412Z,4.50
2023-11-30T11:49:10.048Z,5.40
2023-11-30T11:51:46.862Z,3.50
2023-11-30T11:54:20.338Z,4.50
2023-11-30T11:56:50.975Z,4.10
2023-11-30T11:59:24.415Z,3.70
2023-11-30T12:01:55.281Z,4.60
2023-11-30T12:04:35.274Z,4.30
2023-11-30T12:07:17.818Z,4.40
2023-11-30T12:09:58.009Z,4.20
2023-11-30T12:12:36.486Z,4.80
2023-11-30T12:15:06.029Z,3.70
2023-11-30T12:17:34.873Z,3.00
2023-11-30T12:20:03.558Z,4.60
2023-11-30T12:22:32.021Z,4.30
2023-11-30T12:25:01.744Z,3.60
2023-11-30T12:27:30.508Z,3.60
2023-11-30T12:29:59.262Z,3.40
2023-11-30T12:32:28.015Z,3.50
2023-11-30T12:34:58.467Z,2.80
2023-11-30T12:37:27.826Z,2.70
2023-11-30T12:39:56.481Z,2.90
2023-11-30T12:42:25.712Z,3.60
2023-11-30T12:44:54.428Z,3.50
2023-11-30T12:47:24.514Z,3.70
2023-11-30T12:49:53.056Z,2.80
2023-11-30T12:52:22.395Z,7.50
2023-11-30T12:54:52.313Z,9.50
2023-11-30T12:57:21.295Z,5.00
2023-11-30T12:59:50.128Z,10.60
2023-11-30T13:02:19.247Z,7.30
2023-11-30T13:04:48.247Z,5.10
2023-11-30T13:07:17.733Z,5.30
2023-11-30T13:09:46.778Z,4.70
2023-11-30T13:12:15.577Z,18.10
2023-11-30T13:14:45.060Z,7.30
2023-11-30T13:17:15.631Z,4.00
2023-11-30T13:19:46.410Z,5.70
2023-11-30T13:22:15.248Z,9.00
2023-11-30T13:24:44.641Z,11.20
2023-11-30T13:27:13.421Z,4.40
2023-11-30T13:29:41.973Z,5.00
2023-11-30T13:34:44.115Z,8.70
2023-11-30T13:37:13.757Z,5.00
2023-11-30T13:39:42.346Z,8.10
2023-11-30T13:42:11.175Z,7.30
2023-11-30T13:44:40.451Z,11.50
2023-11-30T13:47:09.676Z,8.60
2023-11-30T13:49:38.528Z,9.10
2023-11-30T13:52:08.698Z,9.50
2023-11-30T13:54:37.389Z,8.70
2023-11-30T13:57:08.311Z,9.00
2023-11-30T13:59:37.149Z,8.00
2023-11-30T14:02:06.404Z,5.30
2023-11-30T14:04:35.087Z,4.90
2023-11-30T14:07:05.356Z,9.20
2023-11-30T14:09:34.049Z,6.00
2023-11-30T14:12:02.614Z,8.10
2023-11-30T14:14:31.251Z,10.20
2023-11-30T14:16:59.702Z,8.70
2023-11-30T14:19:28.363Z,8.80
2023-11-30T14:21:56.902Z,12.50
2023-11-30T14:24:25.455Z,8.50
2023-11-30T14:26:54.125Z,7.20
2023-11-30T14:29:23.893Z,8.10
2023-11-30T14:31:52.863Z,7.40
2023-11-30T14:34:21.700Z,8.90
2023-11-30T14:36:53.395Z,8.30
2023-11-30T14:39:28.570Z,7.40
2023-11-30T14:41:57.895Z,4.60
2023-11-30T14:44:27.109Z,8.10
2023-11-30T14:46:55.996Z,6.80
2023-11-30T14:49:24.613Z,10.60
2023-11-30T14:51:53.317Z,17.50
2023-11-30T14:54:21.977Z,31.60
2023-11-30T14:56:51.997Z,22.40
2023-11-30T14:59:20.608Z,7.90
2023-11-30T15:01:49.251Z,8.80
2023-11-30T15:04:18.283Z,8.90
2023-11-30T15:06:47.144Z,10.10
2023-11-30T15:09:16.610Z,6.80
2023-11-30T15:11:45.400Z,11.80
2023-11-30T15:14:14.006Z,13.00
2023-11-30T15:16:42.720Z,11.30
2023-11-30T15:19:11.456Z,11.10
2023-11-30T15:21:39.901Z,5.30
2023-11-30T15:24:08.765Z,14.50
2023-11-30T15:26:37.287Z,7.30
2023-11-30T15:29:05.944Z,8.30
2023-11-30T15:31:34.444Z,6.20
2023-11-30T15:34:03.468Z,11.00
2023-11-30T15:36:32.776Z,7.50
2023-11-30T15:39:12.567Z,6.00
2023-11-30T15:41:43.996Z,8.50
2023-11-30T15:44:12.941Z,7.20
2023-11-30T15:46:44.833Z,8.70
2023-11-30T15:49:13.794Z,3.70
2023-11-30T15:51:47.618Z,5.40
2023-11-30T15:54:16.321Z,10.70
2023-11-30T15:56:45.322Z,4.00
2023-11-30T15:59:13.903Z,3.90
2023-11-30T16:01:45.276Z,5.10
2023-11-30T16:04:14.119Z,7.00
2023-11-30T16:06:43.372Z,5.60
2023-11-30T16:09:13.348Z,5.90
2023-11-30T16:11:42.912Z,5.90
2023-11-30T16:14:11.540Z,5.30
2023-11-30T16:16:46.148Z,4.20
2023-11-30T16:19:14.766Z,4.00
2023-11-30T16:21:43.438Z,4.20
2023-11-30T16:24:12.070Z,5.00
2023-11-30T16:26:40.756Z,4.10
2023-11-30T16:29:09.333Z,4.40
2023-11-30T16:31:38.014Z,4.00
2023-11-30T16:34:06.743Z,4.80
2023-11-30T16:36:35.422Z,5.60
2023-11-30T16:39:05.046Z,6.30
2023-11-30T16:41:34.398Z,7.60
2023-11-30T16:44:03.083Z,6.90
2023-11-30T16:46:32.406Z,5.00
2023-11-30T16:49:01.179Z,5.00
2023-11-30T16:51:30.288Z,4.90
2023-11-30T16:53:58.768Z,3.70
2023-11-30T16:56:29.266Z,4.40
2023-11-30T16:58:58.210Z,4.60
2023-11-30T17:01:30.953Z,5.00
2023-11-30T17:03:59.787Z,4.00
2023-11-30T17:06:28.753Z,3.80
2023-11-30T17:08:58.226Z,4.60
2023-11-30T17:11:29.680Z,5.20
2023-11-30T17:13:58.348Z,3.00
2023-11-30T17:16:26.959Z,2.80
2023-11-30T17:18:55.757Z,3.50
2023-11-30T17:21:25.144Z,2.90
2023-11-30T17:23:53.791Z,3.10
2023-11-30T17:26:23.112Z,2.10
2023-11-30T17:28:51.743Z,3.90
2023-11-30T17:31:20.485Z,3.40
2023-11-30T17:33:50.329Z,3.90
2023-11-30T17:36:19.145Z,4.00
2023-11-30T17:38:47.818Z,3.30
2023-11-30T17:41:16.407Z,2.80
2023-11-30T17:43:44.989Z,2.60
2023-11-30T17:46:13.724Z,3.20
2023-11-30T17:48:42.304Z,2.60
2023-11-30T17:51:12.878Z,2.80
2023-11-30T17:53:41.518Z,2.90
2023-11-30T17:56:10.504Z,2.90
2023-11-30T17:58:39.087Z,3.20
2023-11-30T18:01:08.124Z,4.90
2023-11-30T18:03:36.900Z,4.90
2023-11-30T18:06:07.352Z,4.80
2023-11-30T18:08:36.491Z,2.70
2023-11-30T18:11:07.785Z,6.80
2023-11-30T18:13:36.524Z,11.30
2023-11-30T18:16:05.503Z,15.80
2023-11-30T18:18:34.200Z,13.20
2023-11-30T18:21:02.728Z,16.30
2023-11-30T18:23:31.263Z,5.20
2023-11-30T18:25:59.790Z,5.00
2023-11-30T18:28:28.327Z,7.20
2023-11-30T18:31:01.778Z,6.20
2023-11-30T18:36:08.726Z,3.10
2023-11-30T18:38:44.024Z,3.80
2023-11-30T18:41:20.676Z,6.10
2023-11-30T18:43:50.726Z,5.40
2023-11-30T18:46:20.052Z,8.50
2023-11-30T18:48:48.780Z,4.20
2023-11-30T18:51:17.369Z,5.40
2023-11-30T18:53:46.048Z,5.10
2023-11-30T18:56:14.631Z,4.60
2023-11-30T18:58:43.621Z,5.30
2023-11-30T19:01:15.250Z,5.10
2023-11-30T19:03:44.229Z,7.00
2023-11-30T19:06:17.690Z,3.90
2023-11-30T19:08:47.522Z,3.30
2023-11-30T19:11:17.467Z,4.20
2023-11-30T19:13:46.286Z,3.80
2023-11-30T19:16:20.345Z,3.00
2023-11-30T19:18:50.290Z,3.40
2023-11-30T19:21:19.689Z,5.20
2023-11-30T19:23:48.393Z,3.60
2023-11-30T19:26:18.818Z,4.30
2023-11-30T19:28:47.547Z,3.70
2023-11-30T19:31:16.970Z,3.30
2023-11-30T19:33:46.483Z,3.20
2023-11-30T19:36:15.092Z,3.00
2023-11-30T19:38:43.674Z,3.70
2023-11-30T19:41:12.881Z,5.30
2023-11-30T19:43:41.578Z,3.90
2023-11-30T19:46:16.444Z,3.80
2023-11-30T19:48:48.068Z,4.20
2023-11-30T19:51:20.361Z,3.90
2023-11-30T19:53:49.603Z,5.40
2023-11-30T19:56:18.303Z,4.60
2023-11-30T19:58:47.074Z,4.80
2023-11-30T20:01:22.694Z,4.80
2023-11-30T20:03:51.564Z,4.80
2023-11-30T20:06:22.881Z,4.70
2023-11-30T20:08:53.804Z,4.30
2023-11-30T20:11:23.708Z,3.40
2023-11-30T20:13:52.343Z,3.70
2023-11-30T20:16:20.991Z,3.60
2023-11-30T20:18:50.361Z,4.30
2023-11-30T20:21:22.709Z,4.00
2023-11-30T20:23:51.480Z,4.80
2023-11-30T20:26:20.176Z,5.10
2023-11-30T20:28:49.074Z,3.90
2023-11-30T20:31:17.911Z,4.90
2023-11-30T20:33:47.485Z,3.20
2023-11-30T20:36:16.703Z,3.00
2023-11-30T20:38:45.389Z,2.70
2023-11-30T20:41:13.872Z,4.50
2023-11-30T20:43:42.504Z,16.20
2023-11-30T20:46:11.722Z,9.00
2023-11-30T20:48:40.391Z,8.80
2023-11-30T20:51:10.310Z,11.90
2023-11-30T20:53:39.046Z,2.90
2023-11-30T20:56:08.339Z,7.90
2023-11-30T20:58:38.144Z,8.80
2023-11-30T21:01:07.325Z,13.70
2023-11-30T21:03:36.201Z,9.60
2023-11-30T21:06:05.632Z,7.70
2023-11-30T21:08:34.262Z,12.90
2023-11-30T21:11:03.355Z,29.50
2023-11-30T21:13:33.433Z,14.30
2023-11-30T21:16:02.562Z,3.40
2023-11-30T21:18:31.316Z,17.90
2023-11-30T21:20:59.993Z,6.10
2023-11-30T21:23:28.626Z,5.80
2023-11-30T21:25:57.357Z,5.90
2023-11-30T21:28:25.989Z,4.20
2023-11-30T21:30:54.670Z,5.20
2023-11-30T21:33:23.589Z,5.60
2023-11-30T21:35:52.880Z,5.50
2023-11-30T21:38:21.416Z,3.50
2023-11-30T21:40:50.754Z,3.30
2023-11-30T21:43:19.800Z,4.10
2023-11-30T21:45:48.596Z,3.40
2023-11-30T21:48:17.560Z,3.40
2023-11-30T21:50:46.225Z,4.70
2023-11-30T21:53:14.861Z,5.30
2023-11-30T21:55:43.530Z,6.00
2023-11-30T21:58:13.194Z,3.60
2023-11-30T22:00:42.004Z,2.20
2023-11-30T22:03:11.069Z,2.20
2023-11-30T22:05:40.683Z,2.60
2023-11-30T22:08:10.299Z,3.30
2023-11-30T22:10:38.859Z,1.90
2023-11-30T22:13:09.540Z,3.70
2023-11-30T22:15:38.613Z,3.00
2023-11-30T22:18:07.186Z,5.40
2023-11-30T22:20:35.889Z,3.90
2023-11-30T22:23:04.840Z,4.80
2023-11-30T22:25:33.322Z,2.60
2023-11-30T22:28:02.455Z,2.00
2023-11-30T22:30:31.349Z,2.60
2023-11-30T22:33:00.257Z,3.80
2023-11-30T22:35:29.473Z,3.30
2023-11-30T22:37:58.443Z,2.60
2023-11-30T22:40:27.863Z,2.60
2023-11-30T22:42:56.617Z,2.90
2023-11-30T22:45:25.265Z,3.80
2023-11-30T22:47:53.917Z,3.90
2023-11-30T22:50:22.706Z,2.90
2023-11-30T22:52:52.115Z,3.80
2023-11-30T22:55:22.584Z,4.30
2023-11-30T22:57:51.480Z,4.70
2023-11-30T23:00:25.646Z,1.80
2023-11-30T23:02:55.176Z,4.20
2023-11-30T23:05:24.945Z,3.70
2023-11-30T23:07:53.575Z,2.50
2023-11-30T23:10:22.171Z,3.40
2023-11-30T23:12:51.723Z,3.10
2023-11-30T23:15:22.238Z,2.80
2023-11-30T23:17:51.051Z,3.50
2023-11-30T23:20:19.710Z,2.00
2023-11-30T23:22:49.206Z,2.60
2023-11-30T23:25:17.891Z,3.00
2023-11-30T23:27:46.484Z,1.40
2023-11-30T23:30:15.259Z,2.80
2023-11-30T23:32:45.584Z,2.00
2023-11-30T23:35:14.112Z,2.20
2023-11-30T23:37:42.649Z,2.50
2023-11-30T23:40:12.134Z,2.60
2023-11-30T23:42:41.207Z,3.20
2023-11-30T23:45:11.211Z,1.90
2023-11-30T23:47:39.908Z,2.10
2023-11-30T23:50:09.048Z,2.30
2023-11-30T23:52:39.256Z,2.20
2023-11-30T23:55:08.086Z,2.40
2023-11-30T23:57:37.370Z,3.40
